Etusivu
METAR-TAF:

METAR-TAF

Lentoasemat :

Riberalta, Bolivia

Leveyspiiri: 11-00S, Pituuspiiri: 066-07W, korkeus merenpinnasta: 141 m

Tämänhetkinen sää

Tämä raportti tehtiin 31 minuuttia sitten, kello 17.00 UTC
Tuuli 6 kn pohjoisen/luoteesta
Lämpötila 33°C
Kosteus 53%
Ilmanpaine 1012 hPa
Näkyvyys 10 km tai enemmän
Muutamia pilviä 2000 ft:n korkeudessa

METAR: SLRI 131700Z 34006KT 9999 FEW020 33/22 Q1012

Aika: 13:31 (17:31 UTC)


TAF: puuttuu

Säähavainnot ja -ennusteet yli 4000 lentoasemalta (METAR- ja TAF-raportit).

Käytössä olevat sääasemat on merkitty karttaan keltaisilla ja punaisilla pisteillä.

Aseta hiiri pisteen päälle nähdäksesi sääaseman nimen.

Klikkaa sitten nähdäksesi säähavainnot ja -ennusteet.

Kartan vaihtaminen: klikkaa mustalla rastilla varustettuja vihreitä pisteitä, niin voit zoomata sisään; viivalla varustettua vihreää pistettä, niin voit zoomata ulos tai vihreitä nuolia, niin pääset viereisille kartoille.


METAR-TAF: